Dundee, Texas
Current Conditions -  °F | °C
As of 5:55 PM on Saturday 25 Oct 2014 (Local Time) from KCWC Reporting Station
Clear Clear  
Wind Chill: 88°   Ceiling: Unl
Heat Index: 88°   Visibility: 10mi
Dew Point: 52°   Wind: 5mph
Humidity: 29%   Direction: 190°S
Pressure: 30.04"   Gusts: NA
Location:  33.6107°N, 98.6955°W
Report Text: KCWC 252255Z AUTO 19004KT 10SM CLR 31/11 A3004 RMK AO2 T03120113
Loading
Personal Weather Stations






























Interactive Weather Map New forecast layout! Learn more

10-Day Weather Forecast

Advertisements
Track Severe Weather on mobile